Destinations Gran Canaria Airport

Gran Canaria Airport (GCLP / LPA)

Flights to Gran Canaria Airport

Flight number From ETE Dispatch
SPY-420 EHGG Groningen Airport Eelde 05:10

Flights from Gran Canaria Airport

Flight number To ETE Dispatch
SPY-421 EHGG Groningen Airport Eelde
About

Gran Canaria Airport facts

Gran Canaria Airport is located in Gran Canaria at an elevation of 23.8 meters or 78 feet.

Currently, Speedy Airlines serves 2 flights to and from Gran Canaria Airport.

Detailed airport info

Route map

Weather

Current weather

METAR

METAR

Metar data retrieved Sunday, 21 July 2024 at 20:25 UTC

GCLP 212000Z 01025KT 9999 SCT020 24/19 Q1014 NOSIG
Wind Temperature
25 kt 24c